Terminal Aerodrome Forecast
Issued by NWS Cleveland, OH

Home | Current Version | Previous Version | Graphics & Text | Print | Product List | Glossary On
Versions: 1 2 3 4 5 6 7 8 9 10 11 12 13 14 15 16 17 18 19 20 21 22 23 24 25
000
FTUS41 KCLE 251131
TAFCLE
TAF
KCLE 251131Z 2512/2618 22010KT P6SM SCT060 OVC120
     FM251400 25010KT P6SM VCSH BKN045 OVC120
     FM251800 27010KT P6SM SCT040 BKN100
     FM260600 33005KT P6SM SKC
     FM260900 02010KT P6SM FEW040=

USA.gov is the U.S. government's official web portal to all federal, state and local government web resources and services.